createdAt,value
2022-11-02T00:01:22.447Z,22.82
2022-11-02T00:03:51.663Z,22.83
2022-11-02T00:06:19.807Z,22.87
2022-11-02T00:08:52.647Z,22.77
2022-11-02T00:11:21.413Z,22.73
2022-11-02T00:13:50.236Z,22.79
2022-11-02T00:16:24.628Z,22.78
2022-11-02T00:19:00.686Z,22.79
2022-11-02T00:21:29.846Z,22.85
2022-11-02T00:23:59.774Z,22.85
2022-11-02T00:26:31.396Z,22.66
2022-11-02T00:28:59.869Z,22.78
2022-11-02T00:31:27.641Z,22.72
2022-11-02T00:33:56.856Z,22.59
2022-11-02T00:36:28.455Z,22.73
2022-11-02T00:38:58.716Z,22.77
2022-11-02T00:41:30.422Z,22.79
2022-11-02T00:44:00.401Z,22.70
2022-11-02T00:46:28.963Z,22.68
2022-11-02T00:49:00.701Z,22.59
2022-11-02T00:51:30.389Z,22.62
2022-11-02T00:54:01.822Z,22.57
2022-11-02T00:56:29.454Z,22.54
2022-11-02T00:59:03.151Z,22.53
2022-11-02T01:01:33.675Z,22.46
2022-11-02T01:04:01.855Z,22.35
2022-11-02T01:06:39.272Z,22.41
2022-11-02T01:09:07.456Z,22.43
2022-11-02T01:11:35.404Z,22.47
2022-11-02T01:14:03.067Z,22.46
2022-11-02T01:16:36.384Z,22.47
2022-11-02T01:19:03.926Z,22.40
2022-11-02T01:21:39.353Z,22.30
2022-11-02T01:24:08.176Z,22.18
2022-11-02T01:26:36.853Z,22.08
2022-11-02T01:29:05.061Z,22.20
2022-11-02T01:31:32.687Z,22.19
2022-11-02T01:34:03.234Z,22.12
2022-11-02T01:36:32.645Z,22.12
2022-11-02T01:39:00.442Z,22.10
2022-11-02T01:41:33.919Z,22.10
2022-11-02T01:44:05.697Z,22.07
2022-11-02T01:46:46.829Z,22.21
2022-11-02T01:49:20.319Z,22.10
2022-11-02T01:52:31.170Z,22.13
2022-11-02T01:55:12.169Z,22.19
2022-11-02T01:57:44.286Z,22.20
2022-11-02T02:00:15.472Z,22.11
2022-11-02T02:03:18.422Z,21.86
2022-11-02T02:05:58.079Z,21.99
2022-11-02T02:08:29.473Z,22.03
2022-11-02T02:11:00.737Z,21.89
2022-11-02T02:13:30.183Z,22.03
2022-11-02T02:16:16.313Z,22.05
2022-11-02T02:18:53.738Z,21.99
2022-11-02T02:21:50.750Z,21.84
2022-11-02T02:24:38.580Z,22.00
2022-11-02T02:27:24.367Z,22.02
2022-11-02T02:30:10.998Z,22.01
2022-11-02T02:32:57.150Z,21.94
2022-11-02T02:35:35.909Z,22.00
2022-11-02T02:38:18.499Z,22.02
2022-11-02T02:41:00.527Z,21.99
2022-11-02T02:43:43.057Z,22.04
2022-11-02T02:46:27.581Z,21.88
2022-11-02T02:48:57.915Z,22.04
2022-11-02T02:51:32.235Z,22.02
2022-11-02T02:54:10.947Z,22.02
2022-11-02T02:56:54.057Z,22.04
2022-11-02T02:59:28.634Z,21.97
2022-11-02T03:01:59.949Z,21.92
2022-11-02T03:04:28.103Z,21.87
2022-11-02T03:07:01.015Z,21.69
2022-11-02T03:10:05.238Z,21.67
2022-11-02T03:12:46.303Z,21.72
2022-11-02T03:15:25.827Z,21.76
2022-11-02T03:18:15.475Z,21.68
2022-11-02T03:21:06.882Z,21.74
2022-11-02T03:23:44.088Z,21.66
2022-11-02T03:26:27.547Z,21.62
2022-11-02T03:29:19.396Z,21.63
2022-11-02T03:31:55.666Z,21.57
2022-11-02T03:34:39.165Z,21.61
2022-11-02T03:37:25.747Z,21.63
2022-11-02T03:40:02.991Z,21.58
2022-11-02T03:42:36.997Z,21.70
2022-11-02T03:45:15.196Z,21.76
2022-11-02T03:48:07.374Z,21.85
2022-11-02T03:50:39.367Z,21.81
2022-11-02T03:53:17.987Z,21.81
2022-11-02T03:55:59.704Z,21.91
2022-11-02T03:58:28.053Z,21.98
2022-11-02T04:01:03.092Z,22.04
2022-11-02T04:03:34.222Z,21.96
2022-11-02T04:06:02.283Z,21.88
2022-11-02T04:08:37.503Z,21.84
2022-11-02T04:11:27.851Z,21.89
2022-11-02T04:14:18.233Z,21.99
2022-11-02T04:16:49.532Z,22.03
2022-11-02T04:19:30.370Z,22.05
2022-11-02T04:22:22.728Z,21.98
2022-11-02T04:25:14.350Z,22.07
2022-11-02T04:27:47.437Z,21.91
2022-11-02T04:30:18.928Z,21.97
2022-11-02T04:33:10.112Z,21.93
2022-11-02T04:35:53.645Z,21.97
2022-11-02T04:38:41.209Z,21.75
2022-11-02T04:41:39.177Z,21.68
2022-11-02T04:44:17.751Z,21.72
2022-11-02T04:46:56.089Z,21.80
2022-11-02T04:49:27.662Z,21.66
2022-11-02T04:51:55.689Z,21.75
2022-11-02T04:54:23.544Z,21.56
2022-11-02T04:56:59.105Z,21.66
2022-11-02T04:59:29.805Z,21.69
2022-11-02T05:01:58.943Z,21.75
2022-11-02T05:04:27.301Z,21.72
2022-11-02T05:07:01.283Z,21.61
2022-11-02T05:09:34.271Z,21.57
2022-11-02T05:12:02.353Z,21.67
2022-11-02T05:14:31.212Z,21.61
2022-11-02T05:16:59.628Z,21.56
2022-11-02T05:19:27.763Z,21.55
2022-11-02T05:21:56.151Z,21.58
2022-11-02T05:24:25.992Z,21.50
2022-11-02T05:26:54.114Z,21.60
2022-11-02T05:29:24.975Z,21.57
2022-11-02T05:31:53.854Z,21.59
2022-11-02T05:34:24.216Z,21.56
2022-11-02T05:36:52.897Z,21.56
2022-11-02T05:39:35.605Z,21.62
2022-11-02T05:42:14.410Z,21.66
2022-11-02T05:44:42.524Z,21.65
2022-11-02T05:47:13.671Z,21.60
2022-11-02T05:49:41.264Z,21.61
2022-11-02T05:52:09.815Z,21.65
2022-11-02T05:54:41.341Z,21.64
2022-11-02T05:57:11.648Z,21.59
2022-11-02T05:59:40.300Z,21.59
2022-11-02T06:02:08.322Z,21.55
2022-11-02T06:04:36.758Z,21.60
2022-11-02T06:07:14.757Z,21.54
2022-11-02T06:09:53.570Z,21.53
2022-11-02T06:12:31.265Z,21.55
2022-11-02T06:15:01.200Z,21.60
2022-11-02T06:17:29.197Z,21.59
2022-11-02T06:19:57.326Z,21.63
2022-11-02T06:22:25.975Z,21.48
2022-11-02T06:24:55.775Z,21.60
2022-11-02T06:27:25.070Z,21.55
2022-11-02T06:29:56.015Z,21.64
2022-11-02T06:32:26.238Z,21.53
2022-11-02T06:34:54.098Z,21.59
2022-11-02T06:37:24.329Z,21.51
2022-11-02T06:39:55.895Z,21.46
2022-11-02T06:42:36.911Z,21.51
2022-11-02T06:45:13.752Z,21.68
2022-11-02T06:47:42.198Z,21.72
2022-11-02T06:50:10.482Z,21.69
2022-11-02T06:52:48.556Z,21.66
2022-11-02T06:55:18.327Z,21.64
2022-11-02T06:57:46.062Z,21.64
2022-11-02T07:00:22.786Z,21.57
2022-11-02T07:03:09.829Z,21.68
2022-11-02T07:05:40.866Z,21.77
2022-11-02T07:08:08.457Z,21.85
2022-11-02T07:10:40.499Z,21.87
2022-11-02T07:13:08.430Z,21.94
2022-11-02T07:15:40.118Z,22.05
2022-11-02T07:18:08.946Z,22.09
2022-11-02T07:20:36.740Z,22.07
2022-11-02T07:23:05.747Z,22.12
2022-11-02T07:25:37.143Z,22.17
2022-11-02T07:28:06.394Z,22.22
2022-11-02T07:30:35.222Z,22.22
2022-11-02T07:33:03.709Z,22.21
2022-11-02T07:35:31.414Z,22.26
2022-11-02T07:38:04.579Z,22.28
2022-11-02T07:40:34.187Z,22.25
2022-11-02T07:43:05.996Z,22.27
2022-11-02T07:45:41.779Z,22.37
2022-11-02T07:48:09.077Z,22.40
2022-11-02T07:50:36.256Z,22.43
2022-11-02T07:53:04.261Z,22.47
2022-11-02T07:55:32.842Z,22.51
2022-11-02T07:58:03.309Z,22.59
2022-11-02T08:00:33.898Z,22.57
2022-11-02T08:03:03.216Z,22.60
2022-11-02T08:05:32.877Z,22.57
2022-11-02T08:08:16.578Z,22.63
2022-11-02T08:10:56.542Z,22.73
2022-11-02T08:13:26.275Z,22.85
2022-11-02T08:15:57.379Z,22.99
2022-11-02T08:18:27.810Z,23.18
2022-11-02T08:20:57.849Z,23.43
2022-11-02T08:23:26.771Z,23.72
2022-11-02T08:26:02.442Z,23.74
2022-11-02T08:28:40.817Z,24.14
2022-11-02T08:31:18.042Z,24.47
2022-11-02T08:33:46.365Z,24.79
2022-11-02T08:36:14.435Z,25.08
2022-11-02T08:38:44.649Z,25.30
2022-11-02T08:41:12.045Z,25.58
2022-11-02T08:43:41.533Z,25.80
2022-11-02T08:46:14.790Z,26.02
2022-11-02T08:48:46.716Z,26.23
2022-11-02T08:51:14.046Z,26.30
2022-11-02T08:53:50.403Z,26.46
2022-11-02T08:56:41.411Z,26.77
2022-11-02T08:59:09.177Z,26.90
2022-11-02T09:01:39.967Z,27.07
2022-11-02T09:04:11.077Z,27.27
2022-11-02T09:06:38.261Z,27.34
2022-11-02T09:09:11.372Z,27.57
2022-11-02T09:11:41.266Z,27.33
2022-11-02T09:14:08.667Z,27.73
2022-11-02T09:16:41.263Z,27.73
2022-11-02T09:19:12.123Z,27.67
2022-11-02T09:21:41.149Z,27.92
2022-11-02T09:24:09.062Z,28.17
2022-11-02T09:26:36.404Z,28.11
2022-11-02T09:29:03.744Z,28.41
2022-11-02T09:31:31.124Z,28.34
2022-11-02T09:34:02.765Z,28.46
2022-11-02T09:36:31.731Z,28.60
2022-11-02T09:39:01.914Z,28.62
2022-11-02T09:41:33.023Z,28.83
2022-11-02T09:44:03.967Z,28.57
2022-11-02T09:46:40.746Z,28.70
2022-11-02T09:49:17.318Z,28.99
2022-11-02T09:51:50.419Z,29.32
2022-11-02T09:54:34.726Z,29.32
2022-11-02T09:57:09.694Z,29.25
2022-11-02T09:59:37.867Z,29.56
2022-11-02T10:02:26.055Z,29.53
2022-11-02T10:05:28.283Z,29.48
2022-11-02T10:08:04.832Z,29.68
2022-11-02T10:10:39.817Z,29.77
2022-11-02T10:13:22.599Z,29.94
2022-11-02T10:15:56.486Z,30.45
2022-11-02T10:18:32.690Z,30.56
2022-11-02T10:21:05.716Z,30.52
2022-11-02T10:23:40.584Z,30.51
2022-11-02T10:26:16.508Z,30.78
2022-11-02T10:28:53.916Z,30.83
2022-11-02T10:31:29.592Z,30.82
2022-11-02T10:34:13.015Z,30.97
2022-11-02T10:37:10.706Z,31.13
2022-11-02T10:39:56.355Z,30.97
2022-11-02T10:43:01.312Z,31.05
2022-11-02T10:45:57.032Z,31.41
2022-11-02T10:48:37.782Z,31.41
2022-11-02T10:51:16.098Z,31.53
2022-11-02T10:53:48.199Z,31.69
2022-11-02T10:56:32.293Z,32.02
2022-11-02T10:58:59.575Z,32.31
2022-11-02T11:01:28.986Z,31.65
2022-11-02T11:04:22.475Z,31.85
2022-11-02T11:06:52.558Z,32.41
2022-11-02T11:09:49.517Z,32.79
2022-11-02T11:12:46.764Z,32.83
2022-11-02T11:15:49.936Z,33.21
2022-11-02T11:21:13.011Z,33.55
2022-11-02T11:23:40.339Z,33.70
2022-11-02T11:26:27.838Z,33.71
2022-11-02T11:28:59.456Z,33.77
2022-11-02T11:31:26.869Z,34.29
2022-11-02T11:33:58.800Z,34.49
2022-11-02T11:36:35.967Z,34.70
2022-11-02T11:39:07.472Z,34.96
2022-11-02T11:41:39.487Z,35.05
2022-11-02T11:44:14.677Z,35.17
2022-11-02T11:46:47.244Z,34.99
2022-11-02T11:50:07.138Z,34.28
2022-11-02T11:52:32.590Z,34.57
2022-11-02T11:55:41.488Z,34.74
2022-11-02T11:58:31.430Z,34.99
2022-11-02T12:01:12.235Z,35.37
2022-11-02T12:04:03.792Z,35.64
2022-11-02T12:06:55.840Z,35.64
2022-11-02T12:09:32.014Z,35.84
2022-11-02T12:12:14.376Z,35.90
2022-11-02T12:15:01.394Z,35.80
2022-11-02T12:17:50.762Z,36.03
2022-11-02T12:20:46.253Z,36.04
2022-11-02T12:23:30.962Z,35.71
2022-11-02T12:26:23.359Z,36.01
2022-11-02T12:28:56.552Z,35.69
2022-11-02T12:31:29.791Z,35.75
2022-11-02T12:34:52.866Z,35.66
2022-11-02T12:37:40.241Z,35.63
2022-11-02T12:40:31.030Z,35.64
2022-11-02T12:43:36.487Z,35.96
2022-11-02T12:46:25.578Z,35.40
2022-11-02T12:49:36.649Z,35.52
2022-11-02T12:52:19.979Z,35.48
2022-11-02T12:54:58.426Z,35.09
2022-11-02T12:57:38.491Z,35.76
2022-11-02T13:00:19.901Z,35.62
2022-11-02T13:03:39.687Z,36.24
2022-11-02T13:06:13.219Z,36.12
2022-11-02T13:09:50.394Z,35.68
2022-11-02T13:12:37.411Z,35.72
2022-11-02T13:15:15.850Z,35.96
2022-11-02T13:18:09.178Z,35.59
2022-11-02T13:20:40.503Z,35.77
2022-11-02T13:23:42.699Z,35.02
2022-11-02T13:26:39.851Z,35.60
2022-11-02T13:29:32.192Z,34.67
2022-11-02T13:32:33.620Z,34.53
2022-11-02T13:35:28.952Z,34.56
2022-11-02T13:38:12.237Z,32.79
2022-11-02T13:40:49.459Z,31.89
2022-11-02T13:44:14.125Z,32.12
2022-11-02T13:47:22.595Z,32.08
2022-11-02T13:49:57.496Z,31.97
2022-11-02T13:52:54.756Z,31.56
2022-11-02T13:55:53.130Z,31.43
2022-11-02T13:58:56.341Z,31.92
2022-11-02T14:01:31.974Z,32.14
2022-11-02T14:04:08.791Z,31.98
2022-11-02T14:10:29.743Z,31.67
2022-11-02T14:13:20.613Z,31.48
2022-11-02T14:15:53.544Z,31.51
2022-11-02T14:18:34.992Z,31.21
2022-11-02T14:21:44.953Z,31.28
2022-11-02T14:24:52.201Z,31.07
2022-11-02T14:27:40.073Z,30.88
2022-11-02T14:30:49.821Z,30.76
2022-11-02T14:34:13.978Z,30.08
2022-11-02T14:37:14.802Z,30.16
2022-11-02T14:40:05.968Z,29.51
2022-11-02T14:43:05.070Z,29.55
2022-11-02T14:45:51.183Z,29.28
2022-11-02T14:48:49.184Z,29.22
2022-11-02T14:51:34.219Z,28.89
2022-11-02T14:57:44.633Z,28.21
2022-11-02T15:00:49.286Z,27.79
2022-11-02T15:03:45.797Z,27.28
2022-11-02T15:06:28.894Z,27.59
2022-11-02T15:09:07.285Z,27.25
2022-11-02T15:12:00.609Z,27.02
2022-11-02T15:14:36.379Z,27.16
2022-11-02T15:17:32.699Z,26.77
2022-11-02T15:20:18.129Z,27.01
2022-11-02T15:23:01.085Z,27.14
2022-11-02T15:25:36.512Z,27.21
2022-11-02T15:28:24.885Z,26.96
2022-11-02T15:30:59.499Z,26.83
2022-11-02T15:33:44.216Z,26.99
2022-11-02T15:36:22.152Z,26.47
2022-11-02T15:39:02.567Z,26.58
2022-11-02T15:42:05.065Z,26.45
2022-11-02T15:44:47.287Z,26.46
2022-11-02T15:47:49.696Z,26.64
2022-11-02T15:50:56.649Z,26.65
2022-11-02T15:54:01.558Z,26.33
2022-11-02T15:57:11.494Z,26.03
2022-11-02T16:00:24.899Z,26.22
2022-11-02T16:02:59.953Z,26.21
2022-11-02T16:05:54.960Z,26.10
2022-11-02T16:08:43.284Z,26.06
2022-11-02T16:11:23.756Z,25.91
2022-11-02T16:14:22.332Z,25.87
2022-11-02T16:16:59.224Z,26.05
2022-11-02T16:19:41.298Z,26.00
2022-11-02T16:22:26.224Z,25.87
2022-11-02T16:24:54.978Z,26.00
2022-11-02T16:27:28.396Z,25.83
2022-11-02T16:29:56.255Z,25.94
2022-11-02T16:32:41.453Z,25.77
2022-11-02T16:35:22.752Z,25.71
2022-11-02T16:37:54.171Z,25.60
2022-11-02T16:40:50.561Z,25.59
2022-11-02T16:43:57.395Z,25.51
2022-11-02T16:46:47.883Z,25.56
2022-11-02T16:49:28.619Z,25.35
2022-11-02T16:52:13.433Z,25.30
2022-11-02T16:55:31.286Z,25.36
2022-11-02T16:58:19.900Z,25.37
2022-11-02T17:01:50.714Z,25.43
2022-11-02T17:04:28.429Z,25.42
2022-11-02T17:07:24.636Z,25.46
2022-11-02T17:10:09.894Z,25.53
2022-11-02T17:13:17.229Z,25.51
2022-11-02T17:16:03.808Z,25.51
2022-11-02T17:18:49.625Z,25.56
2022-11-02T17:21:35.074Z,25.41
2022-11-02T17:24:40.376Z,25.36
2022-11-02T17:27:27.214Z,25.29
2022-11-02T17:29:55.267Z,25.29
2022-11-02T17:32:23.816Z,25.33
2022-11-02T17:34:56.712Z,25.33
2022-11-02T17:37:25.634Z,25.32
2022-11-02T17:39:56.259Z,25.17
2022-11-02T17:42:47.040Z,25.25
2022-11-02T17:45:24.729Z,25.22
2022-11-02T17:47:56.379Z,25.22
2022-11-02T17:50:25.776Z,25.25
2022-11-02T17:53:03.291Z,25.24
2022-11-02T17:55:40.311Z,25.18
2022-11-02T17:58:08.574Z,25.15
2022-11-02T18:00:39.450Z,25.05
2022-11-02T18:03:31.174Z,25.07
2022-11-02T18:06:05.290Z,25.10
2022-11-02T18:08:55.959Z,25.06
2022-11-02T18:11:31.817Z,25.11
2022-11-02T18:14:03.023Z,25.15
2022-11-02T18:16:35.352Z,25.06
2022-11-02T18:19:10.596Z,25.03
2022-11-02T18:21:43.102Z,25.06
2022-11-02T18:24:11.653Z,25.12
2022-11-02T18:26:42.755Z,25.08
2022-11-02T18:29:16.695Z,25.15
2022-11-02T18:34:33.157Z,25.00
2022-11-02T18:40:03.451Z,24.99
2022-11-02T18:42:48.034Z,25.07
2022-11-02T18:48:06.959Z,24.96
2022-11-02T18:50:35.319Z,24.77
2022-11-02T18:53:10.060Z,24.77
2022-11-02T18:55:43.978Z,24.79
2022-11-02T18:58:14.683Z,24.73
2022-11-02T19:01:11.279Z,24.80
2022-11-02T19:03:45.018Z,24.86
2022-11-02T19:06:34.756Z,24.81
2022-11-02T19:09:24.086Z,24.82
2022-11-02T19:12:04.495Z,24.65
2022-11-02T19:17:42.676Z,24.65
2022-11-02T19:20:22.989Z,24.62
2022-11-02T19:22:57.268Z,24.59
2022-11-02T19:25:24.596Z,24.61
2022-11-02T19:27:51.902Z,24.59
2022-11-02T19:30:20.144Z,24.61
2022-11-02T19:32:47.330Z,24.70
2022-11-02T19:35:14.563Z,24.67
2022-11-02T19:37:41.804Z,24.66
2022-11-02T19:40:09.837Z,24.56
2022-11-02T19:42:37.173Z,24.65
2022-11-02T19:45:06.113Z,24.67
2022-11-02T19:47:34.442Z,24.74
2022-11-02T19:50:03.427Z,24.58
2022-11-02T19:52:30.850Z,24.61
2022-11-02T19:54:59.134Z,24.68
2022-11-02T19:57:30.715Z,24.65
2022-11-02T20:00:00.832Z,24.51
2022-11-02T20:02:28.190Z,24.63
2022-11-02T20:04:55.986Z,24.57
2022-11-02T20:07:24.959Z,24.58
2022-11-02T20:09:58.796Z,24.47
2022-11-02T20:12:27.135Z,24.51
2022-11-02T20:14:54.429Z,24.55
2022-11-02T20:17:51.888Z,24.53
2022-11-02T20:20:09.984Z,24.50
2022-11-02T20:22:38.840Z,24.50
2022-11-02T20:25:10.030Z,24.40
2022-11-02T20:27:41.640Z,24.39
2022-11-02T20:30:09.733Z,24.25
2022-11-02T20:32:37.457Z,24.23
2022-11-02T20:35:09.710Z,24.11
2022-11-02T20:37:42.955Z,24.12
2022-11-02T20:40:13.757Z,24.15
2022-11-02T20:42:41.447Z,24.12
2022-11-02T20:45:09.690Z,24.10
2022-11-02T20:47:37.385Z,24.10
2022-11-02T20:50:05.061Z,24.10
2022-11-02T20:52:33.932Z,24.04
2022-11-02T20:57:51.671Z,24.01
2022-11-02T21:00:25.240Z,23.96
2022-11-02T21:03:03.541Z,23.91
2022-11-02T21:05:42.315Z,23.90
2022-11-02T21:08:23.404Z,23.88
2022-11-02T21:14:51.523Z,23.77
2022-11-02T21:17:34.214Z,23.72
2022-11-02T21:23:10.183Z,23.57
2022-11-02T21:25:48.287Z,23.61
2022-11-02T21:28:30.036Z,23.53
2022-11-02T21:31:58.154Z,23.47
2022-11-02T21:34:28.589Z,23.53
2022-11-02T21:37:06.598Z,23.39
2022-11-02T21:39:35.399Z,23.49
2022-11-02T21:42:09.066Z,23.52
2022-11-02T21:44:55.086Z,23.58
2022-11-02T21:47:23.631Z,23.50
2022-11-02T21:50:00.050Z,23.42
2022-11-02T21:52:50.298Z,23.45
2022-11-02T21:55:44.194Z,23.29
2022-11-02T21:58:43.043Z,23.34
2022-11-02T22:01:48.122Z,23.39
2022-11-02T22:04:32.340Z,23.38
2022-11-02T22:07:15.601Z,23.35
2022-11-02T22:10:10.911Z,23.36
2022-11-02T22:13:01.271Z,23.26
2022-11-02T22:15:37.393Z,23.35
2022-11-02T22:18:21.079Z,23.40
2022-11-02T22:21:08.294Z,23.32
2022-11-02T22:24:00.164Z,23.16
2022-11-02T22:26:46.997Z,23.21
2022-11-02T22:29:23.986Z,23.22
2022-11-02T22:32:10.181Z,23.17
2022-11-02T22:35:02.866Z,23.11
2022-11-02T22:38:16.248Z,23.05
2022-11-02T22:41:02.683Z,23.03
2022-11-02T22:44:18.476Z,22.99
2022-11-02T22:47:00.962Z,22.90
2022-11-02T22:52:31.407Z,22.95
2022-11-02T22:55:27.012Z,22.88
2022-11-02T22:58:07.161Z,22.96
2022-11-02T23:00:47.606Z,22.81
2022-11-02T23:03:31.788Z,22.88
2022-11-02T23:06:15.595Z,22.79
2022-11-02T23:08:56.707Z,22.78
2022-11-02T23:11:42.297Z,22.84
2022-11-02T23:14:13.415Z,22.78
2022-11-02T23:17:02.372Z,22.76
2022-11-02T23:19:30.339Z,22.72
2022-11-02T23:22:38.861Z,22.64
2022-11-02T23:25:22.640Z,22.60
2022-11-02T23:28:15.844Z,22.54
2022-11-02T23:31:03.221Z,22.59
2022-11-02T23:33:33.755Z,22.58
2022-11-02T23:36:16.155Z,22.57
2022-11-02T23:39:04.500Z,22.62
2022-11-02T23:41:35.098Z,22.60
2022-11-02T23:44:12.420Z,22.56
2022-11-02T23:46:44.792Z,22.44
2022-11-02T23:49:13.904Z,22.56
2022-11-02T23:52:02.726Z,22.61
2022-11-02T23:54:49.479Z,22.47
2022-11-02T23:57:21.414Z,22.51
2022-11-02T23:59:48.981Z,22.52
